Time;durP1;ratioP1;P1;durP2;ratioP2;P2;SDS_P1;SDS_P2;PMS_P1;PMS_P2;Temp;Humidity;BMP_temperature;BMP_pressure;BME280_temperature;BME280_humidity;BME280_pressure;Samples;Min_cycle;Max_cycle;Signal;HPM_P1;HPM_P2
2023/04/18 00:01:29;;;;;;;;;;;;;;;30.42;67.64;101014.34;5096974;27;70305;-44
2023/04/18 00:04:00;;;;;;;;;;;;;;;30.44;67.62;101014.09;5099991;27;66095;-44
2023/04/18 00:06:31;;;;;;;;;;;;;;;30.48;68.14;101023.47;5095370;27;69826;-45
2023/04/18 00:09:02;;;;;;;;;;;;;;;30.49;67.86;101019.72;5104299;27;66742;-44
2023/04/18 00:11:33;;;;;;;;;;;;;;;30.51;68.49;101023.03;5105070;27;69083;-44
2023/04/18 00:14:05;;;;;;;;;;;;;;;30.55;69.31;101035.09;5088659;27;66159;-44
2023/04/18 00:16:36;;;;;;;;;;;;;;;30.55;69.35;101037.81;5088851;27;70275;-44
2023/04/18 00:19:07;;;;;;;;;;;;;;;30.58;69.66;101034.66;5088213;27;66551;-43
2023/04/18 00:21:43;;;;;;;;;;;;;;;30.60;70.07;101038.00;5088338;27;70001;-44
2023/04/18 00:24:13;;;;;;;;;;;;;;;30.63;70.79;101048.38;5088389;27;66216;-42
2023/04/18 00:26:43;;;;;;;;;;;;;;;30.63;70.71;101042.97;5094415;27;70275;-44
2023/04/18 00:29:13;;;;;;;;;;;;;;;30.66;70.51;101042.53;5093463;27;65958;-44
2023/04/18 00:31:44;;;;;;;;;;;;;;;30.69;71.00;101047.53;5094154;27;70258;-42
2023/04/18 00:34:28;;;;;;;;;;;;;;;30.69;71.40;101038.56;5093955;27;66220;-46
2023/04/18 00:36:59;;;;;;;;;;;;;;;30.69;72.04;101044.81;5094543;27;70494;-43
2023/04/18 00:39:29;;;;;;;;;;;;;;;30.69;72.46;101052.94;5090402;27;66085;-45
2023/04/18 00:42:00;;;;;;;;;;;;;;;30.72;71.92;101055.22;5092908;27;70199;-43
2023/04/18 00:44:30;;;;;;;;;;;;;;;30.75;71.72;101056.66;5095739;27;65477;-44
2023/04/18 00:47:00;;;;;;;;;;;;;;;30.77;71.85;101056.47;5091784;27;69841;-47
2023/04/18 00:49:31;;;;;;;;;;;;;;;30.80;72.92;101065.00;5095094;27;65375;-43
2023/04/18 00:52:02;;;;;;;;;;;;;;;30.80;72.72;101062.31;5094187;27;69235;-41
2023/04/18 00:54:33;;;;;;;;;;;;;;;30.88;72.47;101077.47;5108050;27;66590;-42
2023/04/18 00:57:04;;;;;;;;;;;;;;;30.84;70.42;101078.94;5097970;27;69917;-50
2023/04/18 00:59:34;;;;;;;;;;;;;;;30.87;69.36;101081.22;5091683;27;66870;-42
2023/04/18 01:02:04;;;;;;;;;;;;;;;30.90;68.44;101080.81;5097250;27;70645;-41
2023/04/18 01:04:36;;;;;;;;;;;;;;;30.93;67.60;101088.50;5094320;27;65766;-43
2023/04/18 01:07:09;;;;;;;;;;;;;;;30.96;67.34;101085.38;5099411;27;69212;-42
2023/04/18 01:09:40;;;;;;;;;;;;;;;31.00;66.94;101093.88;5077870;27;65339;-39
2023/04/18 01:12:10;;;;;;;;;;;;;;;31.02;66.61;101084.50;5084277;27;69362;-41
2023/04/18 01:14:44;;;;;;;;;;;;;;;31.04;66.24;101087.81;5109982;27;65054;-42
2023/04/18 01:17:15;;;;;;;;;;;;;;;31.07;66.65;101094.69;5089737;27;70696;-43
2023/04/18 01:19:48;;;;;;;;;;;;;;;31.08;65.95;101089.03;5099971;27;66322;-43
2023/04/18 01:22:18;;;;;;;;;;;;;;;31.12;65.62;101097.56;5092526;27;70248;-41
2023/04/18 01:24:49;;;;;;;;;;;;;;;31.14;65.66;101099.00;5090570;27;66412;-42
2023/04/18 01:27:19;;;;;;;;;;;;;;;31.16;65.57;101099.63;5114145;27;69528;-43
2023/04/18 01:29:49;;;;;;;;;;;;;;;31.19;65.71;101101.06;5090681;27;65515;-42
2023/04/18 01:32:20;;;;;;;;;;;;;;;31.22;65.56;101091.69;5096615;27;69121;-42
2023/04/18 01:34:50;;;;;;;;;;;;;;;31.24;65.06;101097.72;5102315;27;66666;-41
2023/04/18 01:37:21;;;;;;;;;;;;;;;31.26;64.80;101092.88;5094308;27;69805;-41
2023/04/18 01:39:52;;;;;;;;;;;;;;;31.27;64.81;101092.69;5091160;27;66528;-41
2023/04/18 01:42:23;;;;;;;;;;;;;;;31.30;64.67;101096.84;5109348;27;69898;-42
2023/04/18 01:44:53;;;;;;;;;;;;;;;31.32;64.54;101089.34;5113873;27;66121;-41
2023/04/18 01:47:23;;;;;;;;;;;;;;;31.34;64.52;101103.47;5090482;27;70686;-42
2023/04/18 01:49:53;;;;;;;;;;;;;;;31.36;64.20;101104.94;5092097;27;66671;-42
2023/04/18 01:52:25;;;;;;;;;;;;;;;31.38;64.32;101099.31;5098204;27;69335;-41
2023/04/18 01:54:55;;;;;;;;;;;;;;;31.40;64.24;101097.22;5093795;27;66805;-42
2023/04/18 01:57:25;;;;;;;;;;;;;;;31.42;64.41;101100.53;5095442;27;70625;-42
2023/04/18 01:59:55;;;;;;;;;;;;;;;31.44;64.36;101101.16;5096752;27;65627;-43
2023/04/18 02:02:26;;;;;;;;;;;;;;;31.46;64.03;101100.94;5094171;27;70563;-44
2023/04/18 02:04:56;;;;;;;;;;;;;;;31.48;63.99;101105.09;5100583;27;66836;-43
2023/04/18 02:07:26;;;;;;;;;;;;;;;31.50;63.95;101097.56;5106472;27;70382;-43
2023/04/18 02:09:57;;;;;;;;;;;;;;;31.53;63.86;101096.28;5089887;27;66176;-42
2023/04/18 02:12:27;;;;;;;;;;;;;;;31.54;63.95;101098.78;5114474;27;70479;-42
2023/04/18 02:14:57;;;;;;;;;;;;;;;31.58;64.07;101104.59;5096362;27;66411;-44
2023/04/18 02:17:29;;;;;;;;;;;;;;;31.58;63.56;101100.00;5081417;27;70382;-44
2023/04/18 02:19:59;;;;;;;;;;;;;;;31.61;63.60;101098.75;5094590;27;66488;-42
2023/04/18 02:22:30;;;;;;;;;;;;;;;31.63;63.64;101095.81;5095217;27;69429;-43
2023/04/18 02:25:01;;;;;;;;;;;;;;;31.65;63.48;101094.56;5099180;27;64900;-42
2023/04/18 02:27:32;;;;;;;;;;;;;;;31.68;63.70;101093.25;5096472;27;69841;-43
2023/04/18 02:30:03;;;;;;;;;;;;;;;31.69;63.29;101094.94;5095473;27;66663;-42
2023/04/18 02:32:34;;;;;;;;;;;;;;;31.73;63.27;101090.72;5095247;27;69412;-42
2023/04/18 02:35:05;;;;;;;;;;;;;;;31.74;62.99;101086.97;5097520;27;65491;-42
2023/04/18 02:37:35;;;;;;;;;;;;;;;31.75;63.26;101084.00;5094820;27;70410;-42
2023/04/18 02:40:06;;;;;;;;;;;;;;;31.78;63.02;101082.75;5091826;27;65837;-43
2023/04/18 02:42:36;;;;;;;;;;;;;;;31.81;63.09;101079.59;5089294;27;69187;-43
2023/04/18 02:45:07;;;;;;;;;;;;;;;31.84;62.65;101076.44;5093198;27;66909;-43
2023/04/18 02:47:38;;;;;;;;;;;;;;;31.87;62.78;101072.44;5097627;27;70129;-43
2023/04/18 02:50:23;;;;;;;;;;;;;;;31.89;62.37;101071.16;5091662;27;66654;-44
2023/04/18 02:52:55;;;;;;;;;;;;;;;31.91;62.42;101066.38;5097078;27;71278;-44
2023/04/18 02:55:34;;;;;;;;;;;;;;;31.94;62.58;101055.09;5103817;27;66473;-44
2023/04/18 02:58:05;;;;;;;;;;;;;;;31.97;62.20;101065.50;5086351;27;69977;-43
2023/04/18 03:01:07;;;;;;;;;;;;;;;31.99;62.08;101059.84;5098784;27;65925;-44
2023/04/18 03:03:57;;;;;;;;;;;;;;;32.02;62.02;101060.22;5096405;27;69520;-45
2023/04/18 03:06:58;;;;;;;;;;;;;;;31.77;61.75;101022.25;5078160;27;66038;-44
2023/04/18 03:09:32;;;;;;;;;;;;;;;32.03;61.71;101058.34;5106323;27;69668;-46
2023/04/18 03:12:07;;;;;;;;;;;;;;;32.09;61.75;101062.88;5107839;27;66967;-44
2023/04/18 03:14:38;;;;;;;;;;;;;;;32.12;61.88;101061.59;5096693;27;70380;-44
2023/04/18 03:17:08;;;;;;;;;;;;;;;32.15;61.61;101066.56;5081158;27;66151;-44
2023/04/18 03:19:44;;;;;;;;;;;;;;;32.18;61.65;101060.69;5091821;27;70101;-46
2023/04/18 03:22:16;;;;;;;;;;;;;;;32.20;61.46;101056.69;5088932;27;66793;-45
2023/04/18 03:24:53;;;;;;;;;;;;;;;32.22;61.43;101049.16;5087577;27;70683;-44
2023/04/18 03:27:39;;;;;;;;;;;;;;;32.25;61.37;101039.75;5099614;27;66395;-44
2023/04/18 03:30:10;;;;;;;;;;;;;;;32.27;61.29;101048.50;5099524;27;70643;-44
2023/04/18 03:32:42;;;;;;;;;;;;;;;32.30;61.01;101045.31;5086033;27;66749;-44
2023/04/18 03:35:14;;;;;;;;;;;;;;;32.32;60.93;101040.50;5089566;27;70112;-45
2023/04/18 03:37:44;;;;;;;;;;;;;;;32.33;60.71;101036.72;5090634;27;67204;-44
2023/04/18 03:40:22;;;;;;;;;;;;;;;32.35;60.87;101041.94;5103394;27;70723;-43
2023/04/18 03:42:55;;;;;;;;;;;;;;;32.36;60.83;101044.41;5079990;27;66602;-44
2023/04/18 03:45:25;;;;;;;;;;;;;;;32.38;60.56;101033.34;5097501;27;69789;-45
2023/04/18 03:47:56;;;;;;;;;;;;;;;32.39;60.63;101019.53;5112586;27;65912;-44
2023/04/18 03:50:27;;;;;;;;;;;;;;;32.39;60.47;101019.53;5097525;27;70138;-43
2023/04/18 03:52:58;;;;;;;;;;;;;;;32.41;60.47;101022.03;5087795;27;65609;-43
2023/04/18 03:55:32;;;;;;;;;;;;;;;32.42;60.41;101019.06;5110514;27;69926;-44
2023/04/18 03:58:03;;;;;;;;;;;;;;;32.42;60.41;101018.25;5101968;27;66780;-43
2023/04/18 04:00:34;;;;;;;;;;;;;;;32.43;60.39;101014.47;5112986;27;70643;-44
2023/04/18 04:03:08;;;;;;;;;;;;;;;32.43;60.40;101011.75;5082171;27;66492;-44
2023/04/18 04:05:40;;;;;;;;;;;;;;;32.45;60.29;101012.34;5080188;27;69911;-44
2023/04/18 04:08:10;;;;;;;;;;;;;;;32.46;60.34;101014.88;5106552;27;67055;-43
2023/04/18 04:10:40;;;;;;;;;;;;;;;32.46;59.98;101004.03;5096477;27;70424;-43
2023/04/18 04:13:11;;;;;;;;;;;;;;;32.28;60.07;100980.38;5093754;27;66218;-46
2023/04/18 04:15:42;;;;;;;;;;;;;;;32.49;59.95;101003.56;5080001;27;70559;-45
2023/04/18 04:18:12;;;;;;;;;;;;;;;32.51;59.98;101002.50;5088881;27;66871;-44
2023/04/18 04:20:47;;;;;;;;;;;;;;;32.52;59.96;101007.72;5092653;27;70144;-45
2023/04/18 04:23:33;;;;;;;;;;;;;;;32.54;59.90;101004.75;5114323;27;66438;-44
2023/04/18 04:26:03;;;;;;;;;;;;;;;32.55;59.74;100998.28;5093190;27;70691;-44
2023/04/18 04:28:45;;;;;;;;;;;;;;;32.56;59.77;101003.47;5085747;27;66334;-44
2023/04/18 04:31:20;;;;;;;;;;;;;;;32.57;59.73;100993.44;5093201;27;70352;-44
2023/04/18 04:33:51;;;;;;;;;;;;;;;32.58;59.50;100990.50;5091938;27;65963;-44
2023/04/18 04:36:29;;;;;;;;;;;;;;;32.58;59.55;100985.06;5107308;27;69979;-44
2023/04/18 04:39:04;;;;;;;;;;;;;;;32.60;59.56;100982.97;5113429;27;65427;-45
2023/04/18 04:41:52;;;;;;;;;;;;;;;32.62;59.42;100974.56;5080926;27;69202;-44
2023/04/18 04:44:25;;;;;;;;;;;;;;;32.62;59.38;100972.66;5087615;27;66759;-44
2023/04/18 04:46:56;;;;;;;;;;;;;;;32.62;59.32;100969.13;5091301;27;70200;-45
2023/04/18 04:49:32;;;;;;;;;;;;;;;32.65;59.30;100957.81;5096229;27;67077;-44
2023/04/18 04:52:05;;;;;;;;;;;;;;;32.66;59.12;100964.91;5096416;27;70656;-44
2023/04/18 04:54:35;;;;;;;;;;;;;;;32.66;59.28;100951.31;5091951;27;66387;-43
2023/04/18 04:57:08;;;;;;;;;;;;;;;32.66;58.98;100948.63;5113038;27;70692;-43
2023/04/18 04:59:39;;;;;;;;;;;;;;;32.68;59.00;100949.19;5097516;27;66158;-44
2023/04/18 05:02:09;;;;;;;;;;;;;;;32.69;59.02;100942.72;5087480;27;70108;-43
2023/04/18 05:04:39;;;;;;;;;;;;;;;32.70;59.09;100938.94;5095958;27;67010;-43
2023/04/18 05:07:10;;;;;;;;;;;;;;;32.71;59.13;100921.59;5099676;27;68968;-43
2023/04/18 05:09:40;;;;;;;;;;;;;;;32.72;59.08;100931.38;5092013;27;66681;-45
2023/04/18 05:12:10;;;;;;;;;;;;;;;32.72;58.90;100920.53;5082782;27;70258;-44
2023/04/18 05:14:40;;;;;;;;;;;;;;;32.74;58.97;100923.84;5088175;27;65993;-43
2023/04/18 05:17:10;;;;;;;;;;;;;;;32.75;58.85;100913.81;5099438;27;70062;-43
2023/04/18 05:19:42;;;;;;;;;;;;;;;32.51;58.82;100864.00;5099498;27;66940;-43
2023/04/18 05:22:12;;;;;;;;;;;;;;;32.77;58.80;100903.53;5096932;27;70767;-44
2023/04/18 05:24:43;;;;;;;;;;;;;;;32.79;58.90;100896.81;5092002;27;66526;-45
2023/04/18 05:27:13;;;;;;;;;;;;;;;32.80;58.81;100895.75;5094306;27;70486;-44
2023/04/18 05:29:46;;;;;;;;;;;;;;;32.82;58.77;100888.19;5098516;27;66554;-45
2023/04/18 05:32:16;;;;;;;;;;;;;;;32.84;58.48;100880.63;5094789;27;69378;-44
2023/04/18 05:34:47;;;;;;;;;;;;;;;32.84;58.66;100875.19;5101437;27;66646;-44
2023/04/18 05:37:18;;;;;;;;;;;;;;;32.86;58.44;100873.06;5096783;27;69682;-43
2023/04/18 05:39:48;;;;;;;;;;;;;;;32.88;58.52;100867.41;5093859;27;66089;-44
2023/04/18 05:42:19;;;;;;;;;;;;;;;32.90;58.36;100862.53;5095533;27;70589;-44
2023/04/18 05:44:49;;;;;;;;;;;;;;;32.92;58.36;100860.44;5087451;27;66759;-44
2023/04/18 05:47:19;;;;;;;;;;;;;;;32.93;58.33;100857.50;5099292;27;71026;-45
2023/04/18 05:49:50;;;;;;;;;;;;;;;32.96;58.20;100841.75;5099015;27;66822;-45
2023/04/18 05:52:20;;;;;;;;;;;;;;;32.98;58.19;100853.22;5091319;27;70327;-45
2023/04/18 05:54:50;;;;;;;;;;;;;;;32.98;58.14;100843.19;5091934;27;65798;-44
2023/04/18 05:57:21;;;;;;;;;;;;;;;33.01;58.09;100834.59;5090308;27;70528;-44
2023/04/18 05:59:51;;;;;;;;;;;;;;;33.03;58.12;100834.38;5093901;27;67008;-45
2023/04/18 06:02:21;;;;;;;;;;;;;;;33.05;57.85;100832.25;5099588;27;70311;-44
2023/04/18 06:04:51;;;;;;;;;;;;;;;33.07;57.91;100830.09;5099986;27;65625;-45
2023/04/18 06:07:24;;;;;;;;;;;;;;;33.09;57.53;100817.09;5095406;27;70437;-44
2023/04/18 06:09:54;;;;;;;;;;;;;;;33.11;57.77;100812.28;5093236;27;66561;-44
2023/04/18 06:12:24;;;;;;;;;;;;;;;33.13;57.82;100812.88;5100565;27;70426;-44
2023/04/18 06:14:55;;;;;;;;;;;;;;;33.15;57.60;100800.69;5097868;27;66268;-45
2023/04/18 06:17:25;;;;;;;;;;;;;;;33.18;57.41;100802.09;5099748;27;70833;-44
2023/04/18 06:19:55;;;;;;;;;;;;;;;33.20;57.70;100799.13;5086851;27;66039;-44
2023/04/18 06:22:25;;;;;;;;;;;;;;;33.22;57.33;100795.13;5081982;27;69918;-44
2023/04/18 06:24:55;;;;;;;;;;;;;;;33.24;57.31;100793.00;5096232;27;66397;-44
2023/04/18 06:27:26;;;;;;;;;;;;;;;33.27;57.14;100792.53;5093962;27;70054;-44
2023/04/18 06:30:00;;;;;;;;;;;;;;;33.29;57.11;100776.81;5094076;27;66914;-44
2023/04/18 06:32:30;;;;;;;;;;;;;;;33.32;57.18;100778.19;5093827;27;69236;-45
2023/04/18 06:35:01;;;;;;;;;;;;;;;33.34;57.06;100776.06;5098101;27;66332;-45
2023/04/18 06:37:42;;;;;;;;;;;;;;;33.37;57.13;100776.41;5094508;27;69753;-45
2023/04/18 06:40:13;;;;;;;;;;;;;;;33.41;57.06;100770.50;5092643;27;66843;-44
2023/04/18 06:42:43;;;;;;;;;;;;;;;33.43;56.82;100763.75;5097554;27;69929;-45
2023/04/18 06:45:13;;;;;;;;;;;;;;;33.46;56.81;100757.00;5090124;27;66121;-45
2023/04/18 06:47:43;;;;;;;;;;;;;;;33.49;56.71;100743.75;5097988;27;70403;-44
2023/04/18 06:50:14;;;;;;;;;;;;;;;33.52;56.65;100739.75;5091271;27;65604;-44
2023/04/18 06:52:44;;;;;;;;;;;;;;;33.55;56.48;100739.28;5097878;27;70113;-44
2023/04/18 06:55:15;;;;;;;;;;;;;;;33.57;56.36;100737.13;5092886;27;67162;-43
2023/04/18 06:57:45;;;;;;;;;;;;;;;33.61;56.35;100727.44;5092992;27;69529;-44
2023/04/18 07:00:15;;;;;;;;;;;;;;;33.64;56.08;100734.28;5089662;27;66764;-45
2023/04/18 07:02:45;;;;;;;;;;;;;;;33.67;56.19;100731.91;5098561;27;70747;-43
2023/04/18 07:05:16;;;;;;;;;;;;;;;33.70;56.23;100720.53;5097649;27;66530;-44
2023/04/18 07:07:46;;;;;;;;;;;;;;;33.73;55.82;100725.47;5097814;27;70017;-44
2023/04/18 07:10:16;;;;;;;;;;;;;;;33.76;55.80;100719.53;5091901;27;67111;-45
2023/04/18 07:12:47;;;;;;;;;;;;;;;33.81;55.75;100710.66;5091255;27;69847;-44
2023/04/18 07:15:17;;;;;;;;;;;;;;;33.85;55.66;100710.97;5089209;27;65530;-44
2023/04/18 07:17:47;;;;;;;;;;;;;;;33.90;55.49;100713.81;5093694;27;70519;-44
2023/04/18 07:20:17;;;;;;;;;;;;;;;33.93;55.63;100716.03;5093104;27;67774;-44
2023/04/18 07:22:48;;;;;;;;;;;;;;;33.95;55.48;100712.00;5090314;27;69397;-45
2023/04/18 07:25:18;;;;;;;;;;;;;;;33.98;55.50;100707.97;5096941;27;66448;-44
2023/04/18 07:27:49;;;;;;;;;;;;;;;34.02;55.36;100701.78;5097035;27;71429;-44
2023/04/18 07:30:19;;;;;;;;;;;;;;;34.06;55.41;100696.69;5093895;27;65449;-45
2023/04/18 07:32:49;;;;;;;;;;;;;;;34.08;55.25;100700.00;5089879;27;70242;-44
2023/04/18 07:35:20;;;;;;;;;;;;;;;34.13;55.10;100693.81;5108343;27;66894;-45
2023/04/18 07:37:52;;;;;;;;;;;;;;;34.16;55.06;100680.53;5092400;27;70173;-45
2023/04/18 07:40:22;;;;;;;;;;;;;;;34.20;54.58;100681.69;5093644;27;66297;-45
2023/04/18 07:42:52;;;;;;;;;;;;;;;34.22;54.74;100674.09;5091974;27;69493;-45
2023/04/18 07:45:23;;;;;;;;;;;;;;;34.26;54.56;100669.81;5098761;27;66126;-45
2023/04/18 07:47:53;;;;;;;;;;;;;;;34.29;54.52;100684.00;5085974;27;70582;-44
2023/04/18 07:50:23;;;;;;;;;;;;;;;34.34;54.63;100686.81;5093218;27;64396;-44
2023/04/18 07:52:53;;;;;;;;;;;;;;;34.37;54.36;100675.41;5090548;27;70799;-45
2023/04/18 07:55:24;;;;;;;;;;;;;;;34.40;54.12;100677.63;5080947;27;65338;-44
2023/04/18 07:57:54;;;;;;;;;;;;;;;34.42;54.18;100673.59;5092393;27;71239;-45
2023/04/18 08:00:25;;;;;;;;;;;;;;;34.45;53.93;100666.81;5089335;27;65985;-45
2023/04/18 08:02:55;;;;;;;;;;;;;;;34.49;53.78;100667.94;5092439;27;70411;-45
2023/04/18 08:05:26;;;;;;;;;;;;;;;34.51;54.17;100652.19;5092814;27;66320;-46
2023/04/18 08:07:57;;;;;;;;;;;;;;;34.52;53.71;100661.19;5095834;27;69260;-45
2023/04/18 08:10:27;;;;;;;;;;;;;;;34.55;53.93;100660.69;5092841;27;67044;-44
2023/04/18 08:12:58;;;;;;;;;;;;;;;34.58;53.91;100655.59;5093730;27;70531;-44
2023/04/18 08:15:31;;;;;;;;;;;;;;;34.60;54.07;100658.91;4979857;27;3237570;-45
2023/04/18 08:18:01;;;;;;;;;;;;;;;34.62;53.85;100651.28;5092420;27;70574;-44
2023/04/18 08:20:33;;;;;;;;;;;;;;;34.63;53.43;100646.66;5093272;27;65908;-44
2023/04/18 08:23:03;;;;;;;;;;;;;;;34.65;53.45;100645.34;5092894;27;69815;-44
2023/04/18 08:25:38;;;;;;;;;;;;;;;34.67;53.34;100643.19;5086395;27;66711;-44
2023/04/18 08:28:09;;;;;;;;;;;;;;;34.69;53.77;100645.69;5093755;27;68731;-45
2023/04/18 08:30:41;;;;;;;;;;;;;;;34.71;53.15;100640.78;5090765;27;66630;-45
2023/04/18 08:33:11;;;;;;;;;;;;;;;34.73;53.77;100635.09;5095699;27;68855;-45
2023/04/18 08:35:42;;;;;;;;;;;;;;;34.73;53.54;100629.66;5091518;27;65807;-44
2023/04/18 08:38:12;;;;;;;;;;;;;;;34.76;53.28;100629.13;5098512;27;70876;-43
2023/04/18 08:40:43;;;;;;;;;;;;;;;34.77;53.16;100630.78;5098103;27;65732;-45
2023/04/18 08:43:14;;;;;;;;;;;;;;;34.78;53.17;100632.44;5092280;27;70252;-44
2023/04/18 08:45:44;;;;;;;;;;;;;;;34.80;53.16;100627.53;5098404;27;66573;-45
2023/04/18 08:48:15;;;;;;;;;;;;;;;34.81;53.36;100623.75;5098313;27;70636;-45
2023/04/18 08:50:46;;;;;;;;;;;;;;;34.82;53.15;100622.66;5092810;27;65629;-44
2023/04/18 08:53:17;;;;;;;;;;;;;;;34.83;53.39;100618.88;5092604;27;69818;-45
2023/04/18 08:55:52;;;;;;;;;;;;;;;34.83;53.56;100613.44;5095920;27;66044;-45
2023/04/18 08:58:24;;;;;;;;;;;;;;;34.85;53.54;100608.53;5096596;27;70338;-44
2023/04/18 09:00:55;;;;;;;;;;;;;;;34.85;53.24;100611.25;5093369;27;66015;-45
2023/04/18 09:03:38;;;;;;;;;;;;;;;34.87;53.48;100614.56;5088305;27;70724;-44
2023/04/18 09:06:17;;;;;;;;;;;;;;;34.73;54.16;100614.13;5091065;27;66226;-44
2023/04/18 09:09:01;;;;;;;;;;;;;;;34.51;55.16;100611.34;5088578;27;70210;-45
2023/04/18 09:11:33;;;;;;;;;;;;;;;34.36;56.40;100603.78;5087090;27;65932;-45
2023/04/18 09:14:03;;;;;;;;;;;;;;;34.29;56.74;100602.31;5090244;27;69094;-45
2023/04/18 09:16:45;;;;;;;;;;;;;;;34.24;56.94;100593.00;5087928;27;66281;-46
2023/04/18 09:19:18;;;;;;;;;;;;;;;34.19;57.69;100598.38;5089826;27;70719;-44
2023/04/18 09:21:55;;;;;;;;;;;;;;;34.18;58.05;100598.63;5095067;27;66247;-44
2023/04/18 09:24:27;;;;;;;;;;;;;;;34.16;58.20;100598.88;5087309;27;69051;-45
2023/04/18 09:26:58;;;;;;;;;;;;;;;34.17;58.59;100610.59;5084952;27;67006;-46
2023/04/18 09:29:45;;;;;;;;;;;;;;;34.14;58.44;100600.19;5087622;27;69867;-45
2023/04/18 09:32:23;;;;;;;;;;;;;;;34.12;58.53;100597.72;5087220;27;66122;-45
2023/04/18 09:34:56;;;;;;;;;;;;;;;34.10;58.94;100599.88;5085268;27;69820;-45
2023/04/18 09:37:30;;;;;;;;;;;;;;;34.09;58.93;100603.66;5084752;27;65323;-45
2023/04/18 09:40:14;;;;;;;;;;;;;;;34.09;58.64;100603.66;5086582;27;70332;-46
2023/04/18 09:42:46;;;;;;;;;;;;;;;34.07;59.11;100594.91;5083861;27;65326;-45
2023/04/18 09:45:16;;;;;;;;;;;;;;;34.07;58.82;100599.53;5085214;27;69141;-44
2023/04/18 09:47:47;;;;;;;;;;;;;;;34.04;59.33;100606.28;5083318;27;65993;-43
2023/04/18 09:50:19;;;;;;;;;;;;;;;34.07;59.11;100605.81;5084623;27;69084;-45
2023/04/18 09:52:49;;;;;;;;;;;;;;;34.02;59.13;100605.72;5087515;27;66119;-42
2023/04/18 09:55:20;;;;;;;;;;;;;;;34.01;59.43;100601.31;5086772;27;68683;-43
2023/04/18 09:57:52;;;;;;;;;;;;;;;33.97;59.49;100605.63;5106447;27;66960;-44
2023/04/18 10:00:24;;;;;;;;;;;;;;;33.94;59.30;100612.38;5088744;27;69545;-43
2023/04/18 10:02:54;;;;;;;;;;;;;;;33.95;59.36;100608.59;5091406;27;66270;-42
2023/04/18 10:05:30;;;;;;;;;;;;;;;33.94;59.48;100611.56;5098193;27;69682;-43
2023/04/18 10:08:01;;;;;;;;;;;;;;;33.92;59.52;100605.53;5092598;27;66574;-42
2023/04/18 10:10:32;;;;;;;;;;;;;;;33.89;59.82;100619.66;5090097;27;69266;-44
2023/04/18 10:13:04;;;;;;;;;;;;;;;33.87;60.09;100617.16;5088845;27;67245;-44
2023/04/18 10:15:35;;;;;;;;;;;;;;;33.83;60.63;100621.47;5093408;27;69926;-44
2023/04/18 10:18:09;;;;;;;;;;;;;;;33.85;61.04;100621.19;5095358;27;66562;-43
2023/04/18 10:20:40;;;;;;;;;;;;;;;33.85;61.30;100613.03;5091171;27;69734;-44
2023/04/18 10:23:29;;;;;;;;;;;;;;;33.84;61.48;100611.41;5095965;27;67400;-43
2023/04/18 10:26:00;;;;;;;;;;;;;;;33.82;61.83;100619.78;5093816;27;70060;-42
2023/04/18 10:28:50;;;;;;;;;;;;;;;33.77;61.71;100617.84;5089230;27;67819;-43
2023/04/18 10:31:25;;;;;;;;;;;;;;;33.76;62.25;100627.03;5078752;27;69468;-44
2023/04/18 10:34:00;;;;;;;;;;;;;;;33.78;62.15;100629.53;5091672;27;67173;-43
2023/04/18 10:36:34;;;;;;;;;;;;;;;33.75;62.16;100627.31;5087449;27;70434;-43
2023/04/18 10:39:21;;;;;;;;;;;;;;;33.74;62.17;100628.34;5088932;27;67262;-43
2023/04/18 10:41:51;;;;;;;;;;;;;;;33.70;62.59;100627.22;5087723;27;69522;-43
2023/04/18 10:44:22;;;;;;;;;;;;;;;33.72;62.72;100627.81;5091745;27;66788;-42
2023/04/18 10:46:52;;;;;;;;;;;;;;;33.68;62.73;100634.78;5102099;27;70513;-44
2023/04/18 10:49:24;;;;;;;;;;;;;;;33.65;62.98;100630.66;5098515;27;66360;-45
2023/04/18 10:51:57;;;;;;;;;;;;;;;33.64;62.74;100634.47;5096354;27;69941;-43
2023/04/18 10:54:29;;;;;;;;;;;;;;;33.61;62.82;100634.97;5091771;27;66484;-43
2023/04/18 10:57:02;;;;;;;;;;;;;;;33.59;63.02;100642.53;5097206;27;70279;-44
2023/04/18 10:59:33;;;;;;;;;;;;;;;33.57;63.12;100641.94;5098996;27;65218;-44
2023/04/18 11:02:06;;;;;;;;;;;;;;;33.56;63.23;100648.47;5098422;27;70891;-44
2023/04/18 11:04:36;;;;;;;;;;;;;;;33.56;63.23;100648.47;5099029;27;66890;-43
2023/04/18 11:07:07;;;;;;;;;;;;;;;33.52;62.91;100655.44;5092988;27;70387;-44
2023/04/18 11:09:37;;;;;;;;;;;;;;;33.52;63.28;100652.72;5092358;27;66657;-45
2023/04/18 11:12:09;;;;;;;;;;;;;;;33.54;63.43;100661.47;5096423;27;69739;-42
2023/04/18 11:14:47;;;;;;;;;;;;;;;33.53;64.18;100662.53;5094984;27;67325;-41
2023/04/18 11:17:22;;;;;;;;;;;;;;;33.52;64.08;100656.28;5096684;27;69498;-42
2023/04/18 11:20:00;;;;;;;;;;;;;;;33.54;65.03;100651.44;5111909;27;66622;-42
2023/04/18 11:22:30;;;;;;;;;;;;;;;33.52;64.08;100664.44;5091372;27;69903;-43
2023/04/18 11:25:06;;;;;;;;;;;;;;;33.51;63.62;100667.38;5091465;27;67126;-43
2023/04/18 11:27:37;;;;;;;;;;;;;;;33.50;63.79;100676.59;5096769;27;69537;-41
2023/04/18 11:30:08;;;;;;;;;;;;;;;33.52;63.38;100680.75;5098232;27;66367;-43
2023/04/18 11:32:39;;;;;;;;;;;;;;;33.59;63.78;100686.03;5099545;27;70865;-44
2023/04/18 11:35:10;;;;;;;;;;;;;;;33.55;62.56;100677.56;5097514;27;66282;-43
2023/04/18 11:37:41;;;;;;;;;;;;;;;33.47;62.71;100674.38;5095418;27;69590;-41
2023/04/18 11:40:13;;;;;;;;;;;;;;;33.45;62.29;100682.75;5095334;27;67919;-40
2023/04/18 11:42:43;;;;;;;;;;;;;;;33.37;61.65;100681.25;5095174;27;70923;-39
2023/04/18 11:45:15;;;;;;;;;;;;;;;33.34;61.45;100684.44;5099902;27;65484;-41
2023/04/18 11:47:45;;;;;;;;;;;;;;;33.30;61.74;100688.72;5093415;27;71294;-41
2023/04/18 11:50:15;;;;;;;;;;;;;;;33.30;62.41;100687.91;5095362;27;65350;-39
2023/04/18 11:52:48;;;;;;;;;;;;;;;33.28;62.16;100690.84;5099604;27;70543;-40
2023/04/18 11:55:20;;;;;;;;;;;;;;;33.26;62.22;100698.41;5092154;27;66904;-40
2023/04/18 11:57:52;;;;;;;;;;;;;;;33.26;62.45;100701.13;5092667;27;70095;-41
2023/04/18 12:00:38;;;;;;;;;;;;;;;33.24;62.08;100713.31;5094152;27;67012;-40
2023/04/18 12:03:15;;;;;;;;;;;;;;;33.18;62.63;100715.09;5095283;27;69721;-41
2023/04/18 12:05:46;;;;;;;;;;;;;;;33.19;63.66;100710.53;5097803;27;66829;-39
2023/04/18 12:08:18;;;;;;;;;;;;;;;33.25;64.71;100706.84;5097775;27;69069;-41
2023/04/18 12:10:49;;;;;;;;;;;;;;;33.28;65.25;100718.03;5095001;27;65710;-40
2023/04/18 12:13:39;;;;;;;;;;;;;;;33.29;65.37;100718.88;5095945;27;70612;-41
2023/04/18 12:16:11;;;;;;;;;;;;;;;33.27;65.03;100715.59;5092892;27;66618;-40
2023/04/18 12:18:41;;;;;;;;;;;;;;;33.27;64.90;100716.41;5092948;27;70165;-40
2023/04/18 12:21:12;;;;;;;;;;;;;;;33.28;65.05;100717.22;5095772;27;65512;-40
2023/04/18 12:23:44;;;;;;;;;;;;;;;33.26;65.06;100724.78;5099714;27;69364;-40
2023/04/18 12:26:21;;;;;;;;;;;;;;;33.24;64.93;100722.31;5086749;27;66738;-40
2023/04/18 12:28:52;;;;;;;;;;;;;;;33.25;64.88;100725.88;5101729;27;69958;-39
2023/04/18 12:31:23;;;;;;;;;;;;;;;33.23;65.07;100734.25;5089243;27;65743;-40
2023/04/18 12:33:54;;;;;;;;;;;;;;;33.22;65.80;100729.06;5092822;27;70074;-41
2023/04/18 12:36:27;;;;;;;;;;;;;;;33.07;63.74;100732.25;5088844;27;66409;-39
2023/04/18 12:38:57;;;;;;;;;;;;;;;32.87;61.90;100738.88;5099003;27;69788;-39
2023/04/18 12:41:27;;;;;;;;;;;;;;;32.70;60.47;100743.38;5096938;27;66461;-39
2023/04/18 12:43:58;;;;;;;;;;;;;;;32.63;61.15;100742.69;5098008;27;70355;-40
2023/04/18 12:46:28;;;;;;;;;;;;;;;32.56;61.36;100750.09;5094074;27;66938;-38
2023/04/18 12:48:59;;;;;;;;;;;;;;;32.46;60.17;100751.50;5089201;27;70319;-41
2023/04/18 12:51:30;;;;;;;;;;;;;;;32.36;58.93;100753.94;5093222;27;65713;-38
2023/04/18 12:54:00;;;;;;;;;;;;;;;32.26;58.56;100751.81;5090082;27;69903;-42
2023/04/18 12:56:30;;;;;;;;;;;;;;;32.25;60.54;100752.03;5099719;27;65239;-42
2023/04/18 12:59:00;;;;;;;;;;;;;;;32.26;61.07;100761.81;5096840;27;70566;-42
2023/04/18 13:01:31;;;;;;;;;;;;;;;32.21;61.27;100767.97;5085586;27;66946;-42